sensor_id;sensor_type;location;lat;lon;timestamp;pressure;altitude;pressure_sealevel;temperature;humidity
16580;BME280;8402;51.466;6.806;2023-05-07T00:01:02;101315.91;;;18.70;76.60
16580;BME280;8402;51.466;6.806;2023-05-07T00:03:33;101325.28;;;18.69;76.90
16580;BME280;8402;51.466;6.806;2023-05-07T00:06:03;101326.03;;;18.66;77.01
16580;BME280;8402;51.466;6.806;2023-05-07T00:08:36;101326.25;;;18.61;76.87
16580;BME280;8402;51.466;6.806;2023-05-07T00:11:06;101330.16;;;18.60;77.05
16580;BME280;8402;51.466;6.806;2023-05-07T00:13:36;101326.97;;;18.58;77.28
16580;BME280;8402;51.466;6.806;2023-05-07T00:16:06;101316.66;;;18.55;77.22
16580;BME280;8402;51.466;6.806;2023-05-07T00:18:36;101318.63;;;18.54;77.49
16580;BME280;8402;51.466;6.806;2023-05-07T00:21:06;101318.53;;;18.51;77.95
16580;BME280;8402;51.466;6.806;2023-05-07T00:23:38;101315.31;;;18.49;77.98
16580;BME280;8402;51.466;6.806;2023-05-07T00:26:08;101312.13;;;18.47;77.79
16580;BME280;8402;51.466;6.806;2023-05-07T00:28:38;101309.75;;;18.45;77.80
16580;BME280;8402;51.466;6.806;2023-05-07T00:31:08;101302.56;;;18.40;78.00
16580;BME280;8402;51.466;6.806;2023-05-07T00:33:39;101302.91;;;18.39;78.17
16580;BME280;8402;51.466;6.806;2023-05-07T00:36:09;101306.47;;;18.39;78.33
16580;BME280;8402;51.466;6.806;2023-05-07T00:38:42;101293.88;;;18.38;78.14
16580;BME280;8402;51.466;6.806;2023-05-07T00:41:12;101299.38;;;18.38;78.26
16580;BME280;8402;51.466;6.806;2023-05-07T00:43:41;101301.69;;;18.36;78.14
16580;BME280;8402;51.466;6.806;2023-05-07T00:46:12;101297.69;;;18.34;77.93
16580;BME280;8402;51.466;6.806;2023-05-07T00:48:43;101303.09;;;18.30;77.96
16580;BME280;8402;51.466;6.806;2023-05-07T00:51:13;101299.09;;;18.28;78.06
16580;BME280;8402;51.466;6.806;2023-05-07T00:53:46;101300.50;;;18.22;78.26
16580;BME280;8402;51.466;6.806;2023-05-07T00:56:16;101294.13;;;18.18;78.42
16580;BME280;8402;51.466;6.806;2023-05-07T00:58:47;101294.47;;;18.16;78.47
16580;BME280;8402;51.466;6.806;2023-05-07T01:01:17;101290.13;;;18.15;78.62
16580;BME280;8402;51.466;6.806;2023-05-07T01:03:47;101298.38;;;18.15;78.74
16580;BME280;8402;51.466;6.806;2023-05-07T01:06:17;101292.53;;;18.17;78.49
16580;BME280;8402;51.466;6.806;2023-05-07T01:08:51;101284.66;;;18.15;78.76
16580;BME280;8402;51.466;6.806;2023-05-07T01:11:23;101292.88;;;18.15;78.93
16580;BME280;8402;51.466;6.806;2023-05-07T01:13:53;101287.81;;;18.17;78.85
16580;BME280;8402;51.466;6.806;2023-05-07T01:16:24;101283.94;;;18.18;78.89
16580;BME280;8402;51.466;6.806;2023-05-07T01:18:54;101283.13;;;18.18;78.93
16580;BME280;8402;51.466;6.806;2023-05-07T01:21:26;101287.09;;;18.20;78.65
16580;BME280;8402;51.466;6.806;2023-05-07T01:23:59;101288.69;;;18.21;78.77
16580;BME280;8402;51.466;6.806;2023-05-07T01:26:30;101290.31;;;18.22;78.82
16580;BME280;8402;51.466;6.806;2023-05-07T01:29:00;101283.69;;;18.23;78.86
16580;BME280;8402;51.466;6.806;2023-05-07T01:31:32;101285.28;;;18.24;78.40
16580;BME280;8402;51.466;6.806;2023-05-07T01:34:03;101284.13;;;18.25;78.79
16580;BME280;8402;51.466;6.806;2023-05-07T01:36:36;101287.31;;;18.27;78.59
16580;BME280;8402;51.466;6.806;2023-05-07T01:39:10;101284.91;;;18.26;78.55
16580;BME280;8402;51.466;6.806;2023-05-07T01:41:40;101278.63;;;18.25;78.52
16580;BME280;8402;51.466;6.806;2023-05-07T01:44:11;101282.53;;;18.24;78.25
16580;BME280;8402;51.466;6.806;2023-05-07T01:46:42;101282.53;;;18.24;78.27
16580;BME280;8402;51.466;6.806;2023-05-07T01:49:12;101279.34;;;18.22;78.30
16580;BME280;8402;51.466;6.806;2023-05-07T01:51:43;101289.53;;;18.22;78.44
16580;BME280;8402;51.466;6.806;2023-05-07T01:54:15;101293.41;;;18.21;78.33
16580;BME280;8402;51.466;6.806;2023-05-07T01:56:47;101290.13;;;18.15;78.42
16580;BME280;8402;51.466;6.806;2023-05-07T01:59:17;101289.22;;;18.11;79.02
16580;BME280;8402;51.466;6.806;2023-05-07T02:01:47;101292.69;;;18.08;78.96
16580;BME280;8402;51.466;6.806;2023-05-07T02:04:17;101285.94;;;18.05;79.31
16580;BME280;8402;51.466;6.806;2023-05-07T02:06:47;101288.59;;;18.02;79.45
16580;BME280;8402;51.466;6.806;2023-05-07T02:09:32;101298.31;;;17.99;79.27
16580;BME280;8402;51.466;6.806;2023-05-07T02:12:02;101287.69;;;17.98;79.41
16580;BME280;8402;51.466;6.806;2023-05-07T02:14:32;101281.75;;;17.96;79.48
16580;BME280;8402;51.466;6.806;2023-05-07T02:17:02;101277.78;;;17.93;79.70
16580;BME280;8402;51.466;6.806;2023-05-07T02:19:32;101280.06;;;17.91;79.98
16580;BME280;8402;51.466;6.806;2023-05-07T02:22:02;101286.63;;;17.86;79.65
16580;BME280;8402;51.466;6.806;2023-05-07T02:24:35;101284.56;;;17.83;80.07
16580;BME280;8402;51.466;6.806;2023-05-07T02:27:05;101286.84;;;17.81;80.02
16580;BME280;8402;51.466;6.806;2023-05-07T02:29:34;101292.34;;;17.81;79.97
16580;BME280;8402;51.466;6.806;2023-05-07T02:32:04;101287.53;;;17.78;79.63
16580;BME280;8402;51.466;6.806;2023-05-07T02:34:34;101287.91;;;17.77;79.88
16580;BME280;8402;51.466;6.806;2023-05-07T02:37:04;101281.16;;;17.74;79.85
16580;BME280;8402;51.466;6.806;2023-05-07T02:39:37;101280.22;;;17.70;80.23
16580;BME280;8402;51.466;6.806;2023-05-07T02:42:07;101286.44;;;17.67;80.60
16580;BME280;8402;51.466;6.806;2023-05-07T02:44:37;101283.25;;;17.65;80.60
16580;BME280;8402;51.466;6.806;2023-05-07T02:47:08;101287.09;;;17.64;80.62
16580;BME280;8402;51.466;6.806;2023-05-07T02:49:39;101283.47;;;17.60;80.80
16580;BME280;8402;51.466;6.806;2023-05-07T02:52:09;101284.16;;;17.57;80.84
16580;BME280;8402;51.466;6.806;2023-05-07T02:54:42;101270.00;;;17.55;80.96
16580;BME280;8402;51.466;6.806;2023-05-07T02:57:12;101273.44;;;17.52;80.76
16580;BME280;8402;51.466;6.806;2023-05-07T02:59:42;101274.59;;;17.51;81.08
16580;BME280;8402;51.466;6.806;2023-05-07T03:02:12;101279.63;;;17.49;81.22
16580;BME280;8402;51.466;6.806;2023-05-07T03:04:42;101279.63;;;17.49;81.12
16580;BME280;8402;51.466;6.806;2023-05-07T03:07:12;101285.00;;;17.45;81.14
16580;BME280;8402;51.466;6.806;2023-05-07T03:09:45;101282.63;;;17.44;81.05
16580;BME280;8402;51.466;6.806;2023-05-07T03:12:15;101288.00;;;17.40;81.50
16580;BME280;8402;51.466;6.806;2023-05-07T03:14:45;101291.53;;;17.41;81.12
16580;BME280;8402;51.466;6.806;2023-05-07T03:17:15;101285.59;;;17.39;81.66
16580;BME280;8402;51.466;6.806;2023-05-07T03:19:45;101285.47;;;17.35;81.76
16580;BME280;8402;51.466;6.806;2023-05-07T03:22:15;101293.25;;;17.33;81.81
16580;BME280;8402;51.466;6.806;2023-05-07T03:24:48;101290.88;;;17.31;82.01
16580;BME280;8402;51.466;6.806;2023-05-07T03:27:18;101286.97;;;17.32;82.25
16580;BME280;8402;51.466;6.806;2023-05-07T03:29:48;101283.09;;;17.33;81.96
16580;BME280;8402;51.466;6.806;2023-05-07T03:32:18;101280.47;;;17.37;82.21
16580;BME280;8402;51.466;6.806;2023-05-07T03:34:48;101280.13;;;17.39;82.02
16580;BME280;8402;51.466;6.806;2023-05-07T03:37:18;101277.00;;;17.40;82.32
16580;BME280;8402;51.466;6.806;2023-05-07T03:39:51;101271.19;;;17.42;81.77
16580;BME280;8402;51.466;6.806;2023-05-07T03:42:21;101275.50;;;17.43;81.49
16580;BME280;8402;51.466;6.806;2023-05-07T03:44:51;101275.97;;;17.45;81.99
16580;BME280;8402;51.466;6.806;2023-05-07T03:47:21;101278.72;;;17.45;81.69
16580;BME280;8402;51.466;6.806;2023-05-07T03:49:53;101279.16;;;17.47;81.71
16580;BME280;8402;51.466;6.806;2023-05-07T03:52:23;101280.31;;;17.46;82.02
16580;BME280;8402;51.466;6.806;2023-05-07T03:54:55;101283.50;;;17.48;81.94
16580;BME280;8402;51.466;6.806;2023-05-07T03:57:25;101275.63;;;17.46;81.97
16580;BME280;8402;51.466;6.806;2023-05-07T03:59:55;101284.31;;;17.48;81.87
16580;BME280;8402;51.466;6.806;2023-05-07T04:02:25;101281.13;;;17.46;82.33
16580;BME280;8402;51.466;6.806;2023-05-07T04:04:56;101287.41;;;17.47;82.16
16580;BME280;8402;51.466;6.806;2023-05-07T04:07:26;101285.81;;;17.46;82.23
16580;BME280;8402;51.466;6.806;2023-05-07T04:09:58;101291.28;;;17.46;82.49
16580;BME280;8402;51.466;6.806;2023-05-07T04:12:29;101297.47;;;17.43;82.36
16580;BME280;8402;51.466;6.806;2023-05-07T04:14:59;101293.91;;;17.42;82.30
16580;BME280;8402;51.466;6.806;2023-05-07T04:17:28;101294.28;;;17.41;82.47
16580;BME280;8402;51.466;6.806;2023-05-07T04:19:59;101293.38;;;17.37;82.53
16580;BME280;8402;51.466;6.806;2023-05-07T04:22:29;101289.72;;;17.32;82.53
16580;BME280;8402;51.466;6.806;2023-05-07T04:25:01;101291.53;;;17.28;82.98
16580;BME280;8402;51.466;6.806;2023-05-07T04:27:31;101289.06;;;17.23;83.06
16580;BME280;8402;51.466;6.806;2023-05-07T04:30:01;101293.75;;;17.23;83.49
16580;BME280;8402;51.466;6.806;2023-05-07T04:32:31;101287.34;;;17.19;83.33
16580;BME280;8402;51.466;6.806;2023-05-07T04:35:01;101292.38;;;17.17;83.85
16580;BME280;8402;51.466;6.806;2023-05-07T04:37:31;101300.97;;;17.15;83.92
16580;BME280;8402;51.466;6.806;2023-05-07T04:40:06;101301.41;;;17.17;84.14
16580;BME280;8402;51.466;6.806;2023-05-07T04:42:37;101302.56;;;17.16;83.79
16580;BME280;8402;51.466;6.806;2023-05-07T04:45:08;101300.63;;;17.17;84.47
16580;BME280;8402;51.466;6.806;2023-05-07T04:47:39;101305.97;;;17.13;84.79
16580;BME280;8402;51.466;6.806;2023-05-07T04:50:10;101301.63;;;17.12;84.77
16580;BME280;8402;51.466;6.806;2023-05-07T04:52:40;101302.78;;;17.11;84.86
16580;BME280;8402;51.466;6.806;2023-05-07T04:55:12;101308.25;;;17.11;85.13
16580;BME280;8402;51.466;6.806;2023-05-07T04:57:42;101306.66;;;17.10;84.56
16580;BME280;8402;51.466;6.806;2023-05-07T05:00:13;101312.16;;;17.10;84.93
16580;BME280;8402;51.466;6.806;2023-05-07T05:02:46;101301.19;;;17.10;84.97
16580;BME280;8402;51.466;6.806;2023-05-07T05:05:16;101313.75;;;17.11;84.95
16580;BME280;8402;51.466;6.806;2023-05-07T05:07:46;101303.94;;;17.10;85.33
16580;BME280;8402;51.466;6.806;2023-05-07T05:10:19;101302.78;;;17.11;85.28
16580;BME280;8402;51.466;6.806;2023-05-07T05:12:50;101312.25;;;17.14;85.00
16580;BME280;8402;51.466;6.806;2023-05-07T05:15:20;101309.97;;;17.16;85.22
16580;BME280;8402;51.466;6.806;2023-05-07T05:17:50;101313.06;;;17.14;85.00
16580;BME280;8402;51.466;6.806;2023-05-07T05:20:20;101320.16;;;17.15;85.06
16580;BME280;8402;51.466;6.806;2023-05-07T05:22:50;101314.69;;;17.15;85.02
16580;BME280;8402;51.466;6.806;2023-05-07T05:25:23;101315.00;;;17.14;85.43
16580;BME280;8402;51.466;6.806;2023-05-07T05:27:52;101313.41;;;17.13;85.97
16580;BME280;8402;51.466;6.806;2023-05-07T05:30:23;101316.94;;;17.13;85.70
16580;BME280;8402;51.466;6.806;2023-05-07T05:32:53;101311.13;;;17.15;85.57
16580;BME280;8402;51.466;6.806;2023-05-07T05:35:23;101307.56;;;17.14;86.68
16580;BME280;8402;51.466;6.806;2023-05-07T05:37:53;101308.84;;;17.17;85.97
16580;BME280;8402;51.466;6.806;2023-05-07T05:40:26;101316.38;;;17.20;86.03
16580;BME280;8402;51.466;6.806;2023-05-07T05:42:56;101322.66;;;17.20;86.29
16580;BME280;8402;51.466;6.806;2023-05-07T05:45:26;101317.63;;;17.22;86.61
16580;BME280;8402;51.466;6.806;2023-05-07T05:47:56;101323.56;;;17.24;86.09
16580;BME280;8402;51.466;6.806;2023-05-07T05:50:27;101331.88;;;17.28;86.06
16580;BME280;8402;51.466;6.806;2023-05-07T05:52:57;101332.00;;;17.31;86.57
16580;BME280;8402;51.466;6.806;2023-05-07T05:55:29;101331.78;;;17.37;86.26
16580;BME280;8402;51.466;6.806;2023-05-07T05:58:00;101329.59;;;17.42;86.44
16580;BME280;8402;51.466;6.806;2023-05-07T06:00:31;101332.09;;;17.47;86.93
16580;BME280;8402;51.466;6.806;2023-05-07T06:03:02;101329.22;;;17.56;86.49
16580;BME280;8402;51.466;6.806;2023-05-07T06:05:32;101326.22;;;17.61;86.74
16580;BME280;8402;51.466;6.806;2023-05-07T06:08:02;101334.22;;;17.66;86.90
16580;BME280;8402;51.466;6.806;2023-05-07T06:10:35;101327.81;;;17.74;86.56
16580;BME280;8402;51.466;6.806;2023-05-07T06:13:05;101326.16;;;17.85;86.65
16580;BME280;8402;51.466;6.806;2023-05-07T06:15:36;101328.78;;;17.94;86.50
16580;BME280;8402;51.466;6.806;2023-05-07T06:18:06;101329.06;;;18.05;86.00
16580;BME280;8402;51.466;6.806;2023-05-07T06:20:36;101332.47;;;18.14;85.71
16580;BME280;8402;51.466;6.806;2023-05-07T06:23:06;101334.28;;;18.22;85.70
16580;BME280;8402;51.466;6.806;2023-05-07T06:25:39;101328.97;;;18.29;85.17
16580;BME280;8402;51.466;6.806;2023-05-07T06:28:09;101342.06;;;18.36;85.04
16580;BME280;8402;51.466;6.806;2023-05-07T06:30:39;101340.84;;;18.33;84.90
16580;BME280;8402;51.466;6.806;2023-05-07T06:33:09;101346.31;;;18.33;85.21
16580;BME280;8402;51.466;6.806;2023-05-07T06:35:41;101342.44;;;18.34;85.10
16580;BME280;8402;51.466;6.806;2023-05-07T06:38:11;101345.44;;;18.29;85.18
16580;BME280;8402;51.466;6.806;2023-05-07T06:40:43;101343.59;;;18.33;85.20
16580;BME280;8402;51.466;6.806;2023-05-07T06:43:13;101339.44;;;18.39;85.21
16580;BME280;8402;51.466;6.806;2023-05-07T06:45:43;101352.19;;;18.48;85.07
16580;BME280;8402;51.466;6.806;2023-05-07T06:48:13;101342.28;;;18.59;84.74
16580;BME280;8402;51.466;6.806;2023-05-07T06:50:43;101342.94;;;18.68;84.46
16580;BME280;8402;51.466;6.806;2023-05-07T06:53:13;101351.38;;;18.75;83.86
16580;BME280;8402;51.466;6.806;2023-05-07T06:55:46;101353.88;;;18.80;83.34
16580;BME280;8402;51.466;6.806;2023-05-07T06:58:16;101348.38;;;18.80;83.42
16580;BME280;8402;51.466;6.806;2023-05-07T07:00:46;101342.16;;;18.83;83.33
16580;BME280;8402;51.466;6.806;2023-05-07T07:03:16;101344.63;;;18.88;83.16
16580;BME280;8402;51.466;6.806;2023-05-07T07:05:46;101344.81;;;18.95;83.43
16580;BME280;8402;51.466;6.806;2023-05-07T07:08:16;101342.59;;;19.01;82.96
16580;BME280;8402;51.466;6.806;2023-05-07T07:10:50;101344.72;;;19.08;82.84
16580;BME280;8402;51.466;6.806;2023-05-07T07:13:20;101336.63;;;19.15;82.94
16580;BME280;8402;51.466;6.806;2023-05-07T07:15:51;101347.34;;;19.20;82.55
16580;BME280;8402;51.466;6.806;2023-05-07T07:18:21;101353.31;;;19.22;82.52
16580;BME280;8402;51.466;6.806;2023-05-07T07:20:51;101348.66;;;19.26;82.13
16580;BME280;8402;51.466;6.806;2023-05-07T07:23:21;101358.13;;;19.29;81.98
16580;BME280;8402;51.466;6.806;2023-05-07T07:25:54;101351.94;;;19.32;81.06
16580;BME280;8402;51.466;6.806;2023-05-07T07:28:24;101349.97;;;19.32;80.58
16580;BME280;8402;51.466;6.806;2023-05-07T07:30:54;101350.56;;;19.41;80.71
16580;BME280;8402;51.466;6.806;2023-05-07T07:33:24;101349.31;;;19.55;80.78
16580;BME280;8402;51.466;6.806;2023-05-07T07:35:55;101352.16;;;19.77;80.94
16580;BME280;8402;51.466;6.806;2023-05-07T07:38:25;101341.69;;;20.02;79.96
16580;BME280;8402;51.466;6.806;2023-05-07T07:40:58;101350.06;;;20.29;79.55
16580;BME280;8402;51.466;6.806;2023-05-07T07:43:28;101352.00;;;20.48;79.30
16580;BME280;8402;51.466;6.806;2023-05-07T07:45:58;101354.09;;;20.54;78.21
16580;BME280;8402;51.466;6.806;2023-05-07T07:48:27;101356.00;;;20.50;77.43
16580;BME280;8402;51.466;6.806;2023-05-07T07:50:57;101356.00;;;20.50;78.21
16580;BME280;8402;51.466;6.806;2023-05-07T07:53:27;101360.81;;;20.57;78.06
16580;BME280;8402;51.466;6.806;2023-05-07T07:56:00;101356.69;;;20.67;77.22
16580;BME280;8402;51.466;6.806;2023-05-07T07:58:31;101364.50;;;20.87;76.67
16580;BME280;8402;51.466;6.806;2023-05-07T08:01:02;101368.72;;;21.04;77.25
16580;BME280;8402;51.466;6.806;2023-05-07T08:03:32;101364.09;;;21.12;76.72
16580;BME280;8402;51.466;6.806;2023-05-07T08:06:03;101360.34;;;21.24;75.19
16580;BME280;8402;51.466;6.806;2023-05-07T08:08:33;101361.53;;;21.49;75.08
16580;BME280;8402;51.466;6.806;2023-05-07T08:11:05;101364.34;;;21.83;73.78
16580;BME280;8402;51.466;6.806;2023-05-07T08:13:36;101367.53;;;21.85;72.85
16580;BME280;8402;51.466;6.806;2023-05-07T08:16:06;101366.34;;;21.86;73.35
16580;BME280;8402;51.466;6.806;2023-05-07T08:18:36;101370.72;;;21.87;72.68
16580;BME280;8402;51.466;6.806;2023-05-07T08:21:06;101373.84;;;21.85;72.49
16580;BME280;8402;51.466;6.806;2023-05-07T08:23:36;101367.59;;;21.92;72.01
16580;BME280;8402;51.466;6.806;2023-05-07T08:26:10;101375.56;;;21.97;72.09
16580;BME280;8402;51.466;6.806;2023-05-07T08:28:40;101367.59;;;21.92;70.59
16580;BME280;8402;51.466;6.806;2023-05-07T08:31:09;101371.03;;;21.82;70.63
16580;BME280;8402;51.466;6.806;2023-05-07T08:33:39;101369.84;;;21.79;71.38
16580;BME280;8402;51.466;6.806;2023-05-07T08:36:10;101372.22;;;21.81;71.34
16580;BME280;8402;51.466;6.806;2023-05-07T08:38:39;101373.47;;;21.87;71.99
16580;BME280;8402;51.466;6.806;2023-05-07T08:41:15;101366.50;;;21.96;71.05
16580;BME280;8402;51.466;6.806;2023-05-07T08:43:47;101370.91;;;22.01;69.90
16580;BME280;8402;51.466;6.806;2023-05-07T08:46:19;101363.75;;;22.00;69.82
16580;BME280;8402;51.466;6.806;2023-05-07T08:48:49;101369.16;;;22.19;70.28
16580;BME280;8402;51.466;6.806;2023-05-07T08:51:20;101364.56;;;22.34;68.45
16580;BME280;8402;51.466;6.806;2023-05-07T08:53:50;101361.28;;;22.62;68.88
16580;BME280;8402;51.466;6.806;2023-05-07T08:56:23;101361.16;;;22.92;68.35
16580;BME280;8402;51.466;6.806;2023-05-07T08:58:53;101364.94;;;23.18;67.46
16580;BME280;8402;51.466;6.806;2023-05-07T09:01:26;101365.13;;;23.50;66.69
16580;BME280;8402;51.466;6.806;2023-05-07T09:03:56;101358.53;;;23.65;65.54
16580;BME280;8402;51.466;6.806;2023-05-07T09:06:27;101364.16;;;23.86;66.19
16580;BME280;8402;51.466;6.806;2023-05-07T09:08:57;101370.09;;;23.88;64.63
16580;BME280;8402;51.466;6.806;2023-05-07T09:11:30;101370.13;;;23.96;63.93
16580;BME280;8402;51.466;6.806;2023-05-07T09:14:01;101358.25;;;23.99;63.81
16580;BME280;8402;51.466;6.806;2023-05-07T09:16:32;101366.19;;;24.04;63.45
16580;BME280;8402;51.466;6.806;2023-05-07T09:19:02;101363.88;;;24.20;63.30
16580;BME280;8402;51.466;6.806;2023-05-07T09:21:32;101364.34;;;24.36;62.93
16580;BME280;8402;51.466;6.806;2023-05-07T09:24:02;101355.25;;;24.68;63.19
16580;BME280;8402;51.466;6.806;2023-05-07T09:26:35;101356.06;;;24.90;62.01
16580;BME280;8402;51.466;6.806;2023-05-07T09:29:05;101348.94;;;25.10;61.73
16580;BME280;8402;51.466;6.806;2023-05-07T09:31:36;101347.31;;;25.27;60.79
16580;BME280;8402;51.466;6.806;2023-05-07T09:34:07;101349.66;;;25.39;60.78
16580;BME280;8402;51.466;6.806;2023-05-07T09:36:37;101354.78;;;25.59;59.90
16580;BME280;8402;51.466;6.806;2023-05-07T09:39:07;101358.31;;;25.70;60.34
16580;BME280;8402;51.466;6.806;2023-05-07T09:41:46;101347.13;;;25.95;59.35
16580;BME280;8402;51.466;6.806;2023-05-07T09:44:18;101354.16;;;26.17;58.21
16580;BME280;8402;51.466;6.806;2023-05-07T09:46:53;101348.50;;;26.31;56.89
16580;BME280;8402;51.466;6.806;2023-05-07T09:49:24;101339.72;;;26.44;57.46
16580;BME280;8402;51.466;6.806;2023-05-07T09:51:54;101348.78;;;26.51;56.75
16580;BME280;8402;51.466;6.806;2023-05-07T09:54:25;101340.34;;;26.62;56.84
16580;BME280;8402;51.466;6.806;2023-05-07T09:56:59;101349.38;;;26.77;55.36
16580;BME280;8402;51.466;6.806;2023-05-07T09:59:32;101332.53;;;26.95;55.56
16580;BME280;8402;51.466;6.806;2023-05-07T10:02:04;101332.97;;;26.86;55.08
16580;BME280;8402;51.466;6.806;2023-05-07T10:04:35;101343.38;;;26.82;55.80
16580;BME280;8402;51.466;6.806;2023-05-07T10:07:07;101344.19;;;26.79;54.96
16580;BME280;8402;51.466;6.806;2023-05-07T10:09:38;101344.25;;;26.72;55.06
16580;BME280;8402;51.466;6.806;2023-05-07T10:12:13;101348.16;;;26.78;54.65
16580;BME280;8402;51.466;6.806;2023-05-07T10:14:45;101349.81;;;26.72;54.35
16580;BME280;8402;51.466;6.806;2023-05-07T10:17:16;101337.09;;;26.71;54.46
16580;BME280;8402;51.466;6.806;2023-05-07T10:19:46;101337.38;;;26.83;55.05
16580;BME280;8402;51.466;6.806;2023-05-07T10:22:18;101335.69;;;26.97;54.30
16580;BME280;8402;51.466;6.806;2023-05-07T10:24:49;101333.22;;;27.06;53.53
16580;BME280;8402;51.466;6.806;2023-05-07T10:27:24;101337.13;;;27.15;54.93
16580;BME280;8402;51.466;6.806;2023-05-07T10:30:00;101343.06;;;27.18;53.91
16580;BME280;8402;51.466;6.806;2023-05-07T10:32:39;101341.50;;;27.13;52.43
16580;BME280;8402;51.466;6.806;2023-05-07T10:35:14;101342.34;;;27.10;52.31
16580;BME280;8402;51.466;6.806;2023-05-07T10:37:46;101335.44;;;27.22;53.69
16580;BME280;8402;51.466;6.806;2023-05-07T10:40:18;101336.81;;;27.44;53.16
16580;BME280;8402;51.466;6.806;2023-05-07T10:43:00;101333.28;;;27.40;51.04
16580;BME280;8402;51.466;6.806;2023-05-07T10:45:35;101340.94;;;27.66;51.27
16580;BME280;8402;51.466;6.806;2023-05-07T10:48:06;101336.88;;;27.75;51.71
16580;BME280;8402;51.466;6.806;2023-05-07T10:51:18;101335.22;;;27.81;51.58
16580;BME280;8402;51.466;6.806;2023-05-07T10:54:21;101331.22;;;27.78;50.53
16580;BME280;8402;51.466;6.806;2023-05-07T10:56:52;101338.91;;;27.70;50.96
16580;BME280;8402;51.466;6.806;2023-05-07T10:59:35;101333.75;;;27.69;50.56
16580;BME280;8402;51.466;6.806;2023-05-07T11:02:09;101337.50;;;27.86;50.47
16580;BME280;8402;51.466;6.806;2023-05-07T11:04:41;101336.00;;;27.81;49.69
16580;BME280;8402;51.466;6.806;2023-05-07T11:07:24;101338.91;;;27.70;49.71
16580;BME280;8402;51.466;6.806;2023-05-07T11:09:57;101340.81;;;27.77;50.31
16580;BME280;8402;51.466;6.806;2023-05-07T11:12:49;101332.13;;;27.72;49.67
16580;BME280;8402;51.466;6.806;2023-05-07T11:15:44;101327.72;;;27.74;49.52
16580;BME280;8402;51.466;6.806;2023-05-07T11:18:15;101323.88;;;27.95;50.59
16580;BME280;8402;51.466;6.806;2023-05-07T11:20:54;101329.44;;;27.95;48.82
16580;BME280;8402;51.466;6.806;2023-05-07T11:26:46;101327.09;;;27.90;47.54
16580;BME280;8402;51.466;6.806;2023-05-07T11:29:18;101324.88;;;27.78;49.49
16580;BME280;8402;51.466;6.806;2023-05-07T11:31:53;101332.88;;;27.76;49.20
16580;BME280;8402;51.466;6.806;2023-05-07T11:34:25;101330.44;;;27.78;49.74
16580;BME280;8402;51.466;6.806;2023-05-07T11:36:56;101330.84;;;27.80;49.83
16580;BME280;8402;51.466;6.806;2023-05-07T11:39:29;101327.72;;;27.74;49.81
16580;BME280;8402;51.466;6.806;2023-05-07T11:42:00;101330.88;;;27.76;49.92
16580;BME280;8402;51.466;6.806;2023-05-07T11:44:43;101322.53;;;28.03;49.06
16580;BME280;8402;51.466;6.806;2023-05-07T11:47:20;101329.41;;;28.25;48.68
16580;BME280;8402;51.466;6.806;2023-05-07T11:49:51;101338.22;;;28.20;47.84
16580;BME280;8402;51.466;6.806;2023-05-07T11:52:23;101338.66;;;28.19;48.71
16580;BME280;8402;51.466;6.806;2023-05-07T11:54:54;101341.50;;;28.15;48.74
16580;BME280;8402;51.466;6.806;2023-05-07T11:57:25;101333.97;;;28.12;48.32
16580;BME280;8402;51.466;6.806;2023-05-07T11:59:56;101339.28;;;28.03;48.37
16580;BME280;8402;51.466;6.806;2023-05-07T12:02:29;101343.41;;;27.91;46.98
16580;BME280;8402;51.466;6.806;2023-05-07T12:05:00;101341.50;;;27.85;48.12
16580;BME280;8402;51.466;6.806;2023-05-07T12:07:33;101338.25;;;27.90;48.29
16580;BME280;8402;51.466;6.806;2023-05-07T12:10:05;101339.91;;;27.87;46.97
16580;BME280;8402;51.466;6.806;2023-05-07T12:12:38;101338.44;;;27.76;47.10
16580;BME280;8402;51.466;6.806;2023-05-07T12:15:15;101340.94;;;27.66;47.13
16580;BME280;8402;51.466;6.806;2023-05-07T12:17:48;101344.53;;;27.63;48.33
16580;BME280;8402;51.466;6.806;2023-05-07T12:20:19;101335.44;;;27.59;47.17
16580;BME280;8402;51.466;6.806;2023-05-07T12:22:50;101339.47;;;27.55;47.35
16580;BME280;8402;51.466;6.806;2023-05-07T12:25:20;101341.97;;;27.46;48.19
16580;BME280;8402;51.466;6.806;2023-05-07T12:27:51;101342.72;;;27.50;48.12
16580;BME280;8402;51.466;6.806;2023-05-07T12:30:22;101346.78;;;27.41;48.22
16580;BME280;8402;51.466;6.806;2023-05-07T12:32:55;101346.00;;;27.41;47.76
16580;BME280;8402;51.466;6.806;2023-05-07T12:35:28;101346.00;;;27.41;48.17
16580;BME280;8402;51.466;6.806;2023-05-07T12:38:02;101341.91;;;27.49;48.21
16580;BME280;8402;51.466;6.806;2023-05-07T12:40:37;101345.53;;;27.46;47.40
16580;BME280;8402;51.466;6.806;2023-05-07T12:43:07;101341.13;;;27.49;48.44
16580;BME280;8402;51.466;6.806;2023-05-07T12:45:37;101351.56;;;27.41;48.12
16580;BME280;8402;51.466;6.806;2023-05-07T12:48:12;101353.19;;;27.38;47.53
16580;BME280;8402;51.466;6.806;2023-05-07T12:50:42;101344.06;;;27.38;47.63
16580;BME280;8402;51.466;6.806;2023-05-07T12:53:12;101348.41;;;27.39;47.70
16580;BME280;8402;51.466;6.806;2023-05-07T12:55:43;101353.16;;;27.42;48.38
16580;BME280;8402;51.466;6.806;2023-05-07T12:58:17;101350.34;;;27.42;48.42
16580;BME280;8402;51.466;6.806;2023-05-07T13:00:48;101348.78;;;27.41;49.17
16580;BME280;8402;51.466;6.806;2023-05-07T13:03:25;101349.28;;;27.32;48.46
16580;BME280;8402;51.466;6.806;2023-05-07T13:05:59;101358.91;;;27.24;49.03
16580;BME280;8402;51.466;6.806;2023-05-07T13:08:30;101356.16;;;27.21;48.21
16580;BME280;8402;51.466;6.806;2023-05-07T13:11:02;101359.81;;;27.14;48.98
16580;BME280;8402;51.466;6.806;2023-05-07T13:13:33;101361.47;;;27.08;49.57
16580;BME280;8402;51.466;6.806;2023-05-07T13:16:05;101359.59;;;26.94;49.37
16580;BME280;8402;51.466;6.806;2023-05-07T13:18:39;101369.59;;;26.84;48.80
16580;BME280;8402;51.466;6.806;2023-05-07T13:21:10;101367.72;;;26.71;50.05
16580;BME280;8402;51.466;6.806;2023-05-07T13:23:41;101370.91;;;26.69;50.74
16580;BME280;8402;51.466;6.806;2023-05-07T13:26:11;101376.94;;;26.60;49.53